Time;durP1;ratioP1;P1;durP2;ratioP2;P2;SDS_P1;SDS_P2;PMS_P1;PMS_P2;Temp;Humidity;BMP_temperature;BMP_pressure;BME280_temperature;BME280_humidity;BME280_pressure;Samples;Min_cycle;Max_cycle;Signal;HPM_P1;HPM_P2
2022/02/06 00:02:18;;;;;;;0.70;0.50;;;8.50;99.90;;;;;;5014874;28;20183;-73
2022/02/06 00:04:46;;;;;;;0.70;0.50;;;8.30;99.90;;;;;;5013669;28;20435;-73
2022/02/06 00:07:11;;;;;;;1.33;1.23;;;8.20;99.90;;;;;;5016473;28;20962;-73
2022/02/06 00:09:38;;;;;;;0.70;0.50;;;8.10;99.90;;;;;;5015145;28;20462;-73
2022/02/06 00:12:04;;;;;;;0.70;0.50;;;8.10;99.90;;;;;;5015006;28;20196;-74
2022/02/06 00:14:29;;;;;;;0.70;0.47;;;8.00;99.90;;;;;;5016005;28;20458;-74
2022/02/06 00:16:55;;;;;;;1.23;1.13;;;7.90;99.90;;;;;;5016451;28;20171;-73
2022/02/06 00:19:20;;;;;;;0.70;0.50;;;7.90;99.90;;;;;;5016184;28;20850;-74
2022/02/06 00:21:46;;;;;;;0.70;0.50;;;7.90;99.90;;;;;;5015798;28;20168;-74
2022/02/06 00:24:18;;;;;;;0.70;0.50;;;7.90;99.90;;;;;;5015006;28;20175;-74
2022/02/06 00:26:55;;;;;;;0.70;0.50;;;7.80;99.90;;;;;;5015955;28;20167;-74
2022/02/06 00:29:35;;;;;;;0.70;0.43;;;7.80;99.90;;;;;;4998630;28;20495;-74
2022/02/06 00:32:05;;;;;;;0.70;0.50;;;7.80;99.90;;;;;;5014721;28;20498;-74
2022/02/06 00:39:47;;;;;;;0.70;0.50;;;7.90;99.90;;;;;;5015916;28;20413;-74
2022/02/06 00:42:12;;;;;;;0.70;0.50;;;8.00;99.90;;;;;;5015748;28;20976;-76
2022/02/06 00:44:38;;;;;;;0.70;0.50;;;8.00;99.90;;;;;;5014828;28;20188;-74
2022/02/06 00:47:04;;;;;;;0.70;0.50;;;8.10;99.90;;;;;;5013688;28;20180;-74
2022/02/06 00:49:31;;;;;;;0.90;0.90;;;8.10;99.90;;;;;;5014778;28;20223;-74
2022/02/06 00:54:23;;;;;;;1.00;0.73;;;8.20;99.90;;;;;;5014335;28;20867;-74
2022/02/06 00:56:49;;;;;;;0.93;0.93;;;8.20;99.90;;;;;;5012745;28;20510;-75
2022/02/06 00:59:15;;;;;;;0.70;0.50;;;8.30;99.90;;;;;;4994347;28;20200;-74
2022/02/06 01:01:42;;;;;;;0.70;0.50;;;8.30;99.90;;;;;;5013050;28;20427;-74
2022/02/06 01:04:09;;;;;;;0.77;0.57;;;8.30;99.90;;;;;;5013428;28;20935;-75
2022/02/06 01:06:35;;;;;;;0.70;0.50;;;8.40;99.90;;;;;;5013813;28;20477;-74
2022/02/06 01:09:00;;;;;;;0.70;0.50;;;8.50;99.90;;;;;;5014764;28;20427;-74
2022/02/06 01:11:26;;;;;;;0.73;0.57;;;8.60;99.90;;;;;;5012880;28;20177;-77
2022/02/06 01:16:26;;;;;;;0.70;0.50;;;8.60;99.90;;;;;;5014452;28;20266;-74
2022/02/06 01:18:59;;;;;;;0.70;0.50;;;8.60;99.90;;;;;;5014092;28;20423;-74
2022/02/06 01:24:14;;;;;;;0.70;0.50;;;8.70;99.90;;;;;;5029136;28;20479;-74
2022/02/06 01:31:54;;;;;;;0.93;0.83;;;8.80;99.90;;;;;;5010351;28;20455;-75
2022/02/06 01:34:25;;;;;;;0.70;0.50;;;8.80;99.90;;;;;;5013606;28;20947;-74
2022/02/06 01:37:05;;;;;;;0.70;0.50;;;8.80;99.90;;;;;;5014379;28;20453;-74
2022/02/06 01:42:42;;;;;;;0.70;0.50;;;8.80;99.90;;;;;;5014364;28;20422;-74
2022/02/06 02:11:55;;;;;;;0.70;0.50;;;8.90;99.90;;;;;;5013285;28;20783;-74
2022/02/06 02:17:27;;;;;;;0.70;0.60;;;9.00;99.90;;;;;;5013591;28;20462;-75
2022/02/06 02:25:23;;;;;;;0.70;0.40;;;9.10;99.90;;;;;;5018586;28;20436;-74
2022/02/06 02:28:03;;;;;;;0.70;0.50;;;9.10;99.90;;;;;;5012627;28;20430;-74
2022/02/06 02:30:59;;;;;;;2.80;1.30;;;9.20;99.90;;;;;;5014586;28;20423;-74
2022/02/06 02:42:50;;;;;;;0.70;0.50;;;9.20;99.90;;;;;;4996146;28;20532;-74
2022/02/06 02:44:56;;;;;;;0.70;0.40;;;9.30;99.90;;;;;;5013321;28;20430;-74
2022/02/06 02:49:37;;;;;;;0.70;0.50;;;9.30;99.90;;;;;;5013505;28;20443;-74
2022/02/06 02:52:05;;;;;;;0.70;0.50;;;9.30;99.90;;;;;;5013555;28;20188;-74
2022/02/06 02:54:33;;;;;;;0.70;0.53;;;9.20;99.90;;;;;;4996267;28;20415;-74
2022/02/06 02:57:25;;;;;;;0.70;0.50;;;9.20;99.90;;;;;;5014404;28;20423;-74
2022/02/06 03:00:06;;;;;;;1.00;0.60;;;9.20;99.90;;;;;;5013163;28;21056;-74
2022/02/06 03:02:32;;;;;;;0.70;0.50;;;9.20;99.90;;;;;;5013272;28;20804;-74
2022/02/06 03:05:00;;;;;;;0.70;0.50;;;9.20;99.90;;;;;;5017733;28;20446;-74
2022/02/06 03:07:25;;;;;;;0.70;0.50;;;9.20;99.90;;;;;;5014730;28;20445;-74
2022/02/06 03:09:51;;;;;;;0.70;0.50;;;9.20;99.90;;;;;;5013452;28;20454;-74
2022/02/06 03:12:22;;;;;;;0.70;0.50;;;9.20;99.90;;;;;;4998239;28;20211;-74
2022/02/06 03:14:55;;;;;;;1.83;1.73;;;9.20;99.90;;;;;;5017271;28;20172;-74
2022/02/06 03:17:44;;;;;;;0.70;0.50;;;9.20;99.90;;;;;;5017464;28;20411;-74
2022/02/06 03:20:17;;;;;;;1.00;0.70;;;9.20;99.90;;;;;;4989597;28;20481;-74
2022/02/06 03:22:53;;;;;;;0.70;0.50;;;9.10;99.90;;;;;;5017507;28;20509;-74
2022/02/06 03:25:22;;;;;;;1.00;0.70;;;9.10;99.90;;;;;;5003040;28;20430;-74
2022/02/06 03:27:49;;;;;;;0.70;0.50;;;9.00;99.90;;;;;;4999867;28;20423;-74
2022/02/06 03:30:15;;;;;;;0.70;0.57;;;9.00;99.90;;;;;;4999339;28;20955;-74
2022/02/06 03:32:40;;;;;;;0.70;0.50;;;9.00;99.90;;;;;;5002016;28;20812;-74
2022/02/06 03:35:07;;;;;;;0.70;0.50;;;8.90;99.90;;;;;;5017739;28;20438;-74
2022/02/06 03:37:32;;;;;;;0.73;0.60;;;8.90;99.90;;;;;;4999041;28;20626;-74
2022/02/06 03:40:01;;;;;;;1.37;0.90;;;8.80;99.90;;;;;;5016850;28;20429;-75
2022/02/06 03:42:34;;;;;;;0.80;0.70;;;8.80;99.90;;;;;;5020596;28;20186;-74
2022/02/06 03:45:04;;;;;;;0.70;0.50;;;8.70;99.90;;;;;;5017377;28;20928;-74
2022/02/06 03:47:46;;;;;;;0.70;0.50;;;8.70;99.90;;;;;;5016539;28;20418;-74
2022/02/06 03:50:14;;;;;;;0.70;0.50;;;8.60;99.90;;;;;;5016295;28;20450;-74
2022/02/06 03:52:49;;;;;;;0.70;0.50;;;8.60;99.90;;;;;;5021985;28;20460;-74
2022/02/06 03:55:19;;;;;;;0.80;0.70;;;8.50;99.90;;;;;;5025409;28;20427;-74
2022/02/06 03:57:51;;;;;;;1.57;1.47;;;8.50;99.90;;;;;;5016263;28;20773;-74
2022/02/06 04:00:19;;;;;;;0.70;0.50;;;8.40;99.90;;;;;;5015850;28;20451;-74
2022/02/06 04:02:46;;;;;;;0.70;0.50;;;8.40;99.90;;;;;;5016649;28;20438;-74
2022/02/06 04:05:14;;;;;;;0.70;0.50;;;8.30;99.90;;;;;;5015989;28;20487;-75
2022/02/06 04:07:41;;;;;;;0.70;0.50;;;8.30;99.90;;;;;;5016290;28;20411;-74
2022/02/06 04:10:09;;;;;;;0.70;0.50;;;8.30;99.90;;;;;;5015872;28;20450;-74
2022/02/06 04:12:37;;;;;;;0.70;0.50;;;8.20;99.90;;;;;;5000609;28;20523;-74
2022/02/06 04:15:07;;;;;;;0.70;0.50;;;8.20;99.90;;;;;;5015233;28;20434;-74
2022/02/06 04:17:44;;;;;;;1.03;0.93;;;8.20;99.90;;;;;;5016413;28;20419;-75
2022/02/06 04:20:10;;;;;;;0.70;0.50;;;8.20;99.90;;;;;;5015477;28;20466;-74
2022/02/06 04:22:36;;;;;;;0.70;0.50;;;8.20;99.90;;;;;;5016836;28;20462;-74
2022/02/06 04:25:02;;;;;;;0.70;0.50;;;8.20;99.90;;;;;;5014650;28;20936;-74
2022/02/06 04:27:29;;;;;;;0.70;0.50;;;8.30;99.90;;;;;;5015627;28;20175;-74
2022/02/06 04:29:54;;;;;;;0.70;0.50;;;8.30;99.90;;;;;;5015547;28;21029;-74
2022/02/06 04:32:21;;;;;;;0.70;0.50;;;8.30;99.90;;;;;;5016218;28;20501;-73
2022/02/06 04:34:47;;;;;;;0.70;0.50;;;8.30;99.90;;;;;;5012118;28;20172;-74
2022/02/06 04:53:07;;;;;;;0.80;0.60;;;8.40;99.90;;;;;;5015004;28;20538;-74
2022/02/06 05:25:18;;;;;;;0.70;0.50;;;8.30;99.90;;;;;;5002387;28;20784;-74
2022/02/06 05:30:49;;;;;;;3.00;2.87;;;8.40;99.90;;;;;;5014671;28;20489;-74
2022/02/06 05:33:14;;;;;;;1.37;1.27;;;8.30;99.90;;;;;;5013122;28;20983;-74
2022/02/06 05:35:40;;;;;;;0.70;0.50;;;8.30;99.90;;;;;;5013836;28;20419;-74
2022/02/06 05:38:05;;;;;;;0.70;0.47;;;8.30;99.90;;;;;;5014575;28;20168;-75
2022/02/06 05:40:31;;;;;;;0.70;0.50;;;8.30;99.90;;;;;;4997109;28;20609;-74
2022/02/06 05:42:56;;;;;;;0.80;0.53;;;8.30;99.90;;;;;;5014666;28;20646;-74
2022/02/06 05:45:22;;;;;;;0.70;0.50;;;8.30;99.90;;;;;;4996582;28;20522;-74
2022/02/06 05:47:48;;;;;;;0.70;0.60;;;8.30;99.90;;;;;;5014916;28;20584;-74
2022/02/06 05:50:15;;;;;;;0.70;0.50;;;8.30;99.90;;;;;;5014263;28;20192;-75
2022/02/06 05:52:41;;;;;;;0.70;0.50;;;8.30;99.90;;;;;;5014232;28;20458;-75
2022/02/06 05:55:08;;;;;;;0.70;0.50;;;8.30;99.90;;;;;;5012568;28;20490;-74
2022/02/06 05:57:34;;;;;;;2.60;2.40;;;8.30;99.90;;;;;;5012396;28;20434;-74
2022/02/06 06:00:00;;;;;;;0.70;0.50;;;8.30;99.90;;;;;;5011305;28;20447;-75
2022/02/06 06:02:25;;;;;;;0.70;0.50;;;8.40;99.90;;;;;;4994791;28;20183;-73
2022/02/06 06:04:51;;;;;;;0.70;0.50;;;8.40;99.90;;;;;;5012030;28;20184;-74
2022/02/06 06:07:16;;;;;;;0.70;0.50;;;8.40;99.90;;;;;;4995066;28;20187;-75
2022/02/06 06:09:42;;;;;;;0.80;0.57;;;8.40;99.90;;;;;;5012000;28;20204;-73
2022/02/06 06:12:08;;;;;;;0.70;0.50;;;8.40;99.90;;;;;;5012659;28;20199;-74
2022/02/06 06:14:34;;;;;;;0.70;0.43;;;8.40;99.90;;;;;;5012029;28;20217;-74
2022/02/06 06:16:59;;;;;;;0.70;0.50;;;8.40;99.90;;;;;;5012441;28;20506;-74
2022/02/06 06:19:25;;;;;;;0.70;0.43;;;8.40;99.90;;;;;;5011761;28;20534;-74
2022/02/06 06:21:56;;;;;;;0.70;0.60;;;8.40;99.90;;;;;;5012453;28;20223;-74
2022/02/06 06:24:24;;;;;;;0.70;0.50;;;8.40;99.90;;;;;;4994552;28;20944;-74
2022/02/06 06:26:50;;;;;;;0.70;0.50;;;8.40;99.90;;;;;;5012749;28;20423;-74
2022/02/06 06:29:16;;;;;;;0.70;0.50;;;8.40;99.90;;;;;;5011982;28;20995;-74
2022/02/06 06:31:42;;;;;;;1.07;0.70;;;8.40;99.90;;;;;;5013312;28;20419;-74
2022/02/06 06:34:07;;;;;;;0.70;0.50;;;8.40;99.90;;;;;;4995926;28;20630;-74
2022/02/06 06:36:35;;;;;;;0.70;0.50;;;8.30;99.90;;;;;;5013434;28;20186;-74
2022/02/06 06:39:05;;;;;;;0.70;0.50;;;8.30;99.90;;;;;;4995142;28;20239;-74
2022/02/06 06:41:31;;;;;;;0.70;0.50;;;8.40;99.90;;;;;;5011546;28;20443;-74
2022/02/06 06:43:56;;;;;;;0.70;0.50;;;8.40;99.90;;;;;;5013638;28;20407;-74
2022/02/06 06:46:22;;;;;;;0.70;0.50;;;8.40;99.90;;;;;;5013931;28;20251;-74
2022/02/06 06:48:47;;;;;;;0.70;0.50;;;8.40;99.90;;;;;;5016491;28;20207;-74
2022/02/06 06:51:14;;;;;;;0.70;0.50;;;8.50;99.90;;;;;;5015345;28;20195;-74
2022/02/06 06:53:43;;;;;;;0.70;0.50;;;8.50;99.90;;;;;;4998913;28;20203;-74
2022/02/06 06:56:19;;;;;;;0.70;0.50;;;8.50;99.90;;;;;;4999416;28;20482;-74
2022/02/06 06:58:49;;;;;;;0.70;0.50;;;8.50;99.90;;;;;;4999963;28;20433;-73
2022/02/06 07:03:46;;;;;;;0.70;0.50;;;8.60;99.90;;;;;;5016327;28;20928;-74
2022/02/06 07:06:12;;;;;;;0.70;0.60;;;8.60;99.90;;;;;;5017084;28;20434;-74
2022/02/06 07:08:37;;;;;;;0.70;0.60;;;8.60;99.90;;;;;;5017180;28;20842;-73
2022/02/06 07:11:03;;;;;;;0.70;0.50;;;8.70;99.90;;;;;;4995319;28;20656;-73
2022/02/06 07:13:28;;;;;;;0.70;0.50;;;8.70;99.90;;;;;;5015548;28;20195;-73
2022/02/06 07:15:54;;;;;;;0.70;0.50;;;8.70;99.90;;;;;;5015542;28;20180;-74
2022/02/06 07:18:20;;;;;;;0.70;0.40;;;8.80;99.90;;;;;;5015741;28;20769;-74
2022/02/06 07:20:47;;;;;;;0.70;0.50;;;8.80;99.90;;;;;;5014784;28;20509;-75
2022/02/06 07:23:13;;;;;;;0.80;0.60;;;8.80;99.90;;;;;;5015261;28;20423;-74
2022/02/06 07:25:41;;;;;;;0.70;0.50;;;8.80;99.90;;;;;;5015272;28;20519;-74
2022/02/06 07:28:14;;;;;;;0.70;0.50;;;8.80;99.90;;;;;;4997694;28;20449;-74
2022/02/06 07:30:40;;;;;;;0.70;0.50;;;8.90;99.90;;;;;;5014401;28;20469;-75
2022/02/06 07:33:06;;;;;;;0.70;0.50;;;8.90;99.90;;;;;;5014441;28;20447;-74
2022/02/06 07:35:32;;;;;;;0.70;0.50;;;8.90;99.90;;;;;;5015167;28;20427;-74
2022/02/06 07:37:58;;;;;;;0.70;0.50;;;8.90;99.90;;;;;;5016287;28;20557;-74
2022/02/06 07:40:25;;;;;;;0.70;0.50;;;8.90;99.90;;;;;;4997540;28;20201;-74
2022/02/06 07:42:51;;;;;;;0.70;0.50;;;8.90;99.90;;;;;;5015955;28;20924;-74
2022/02/06 07:45:17;;;;;;;0.70;0.50;;;8.90;99.90;;;;;;5014885;28;20490;-74
2022/02/06 07:47:45;;;;;;;0.70;0.50;;;8.90;99.90;;;;;;5016047;28;20975;-74
2022/02/06 07:50:12;;;;;;;0.70;0.50;;;8.90;99.90;;;;;;5015493;28;20277;-74
2022/02/06 07:52:38;;;;;;;0.70;0.50;;;8.90;99.90;;;;;;5015567;28;20528;-75
2022/02/06 07:55:06;;;;;;;0.70;0.50;;;8.90;99.90;;;;;;5015605;28;20458;-74
2022/02/06 07:57:32;;;;;;;0.70;0.50;;;8.90;99.90;;;;;;5014731;28;20411;-74
2022/02/06 07:59:58;;;;;;;0.70;0.50;;;8.90;99.90;;;;;;5014023;28;20443;-74
2022/02/06 08:02:23;;;;;;;0.70;0.50;;;8.90;99.90;;;;;;5015309;28;20978;-74
2022/02/06 08:04:50;;;;;;;0.70;0.50;;;8.90;99.90;;;;;;5015387;28;20199;-74
2022/02/06 08:07:16;;;;;;;0.70;0.50;;;8.90;99.90;;;;;;5016286;28;20192;-74
2022/02/06 08:12:14;;;;;;;0.70;0.50;;;8.90;99.90;;;;;;5015448;28;20455;-74
2022/02/06 08:14:51;;;;;;;0.70;0.50;;;8.90;99.90;;;;;;5015595;28;20423;-74
2022/02/06 08:17:28;;;;;;;0.70;0.50;;;8.90;99.90;;;;;;4997037;28;20423;-74
2022/02/06 08:19:55;;;;;;;0.70;0.50;;;8.90;99.90;;;;;;4995244;28;21085;-74
2022/02/06 08:22:22;;;;;;;0.70;0.50;;;8.90;99.90;;;;;;5012728;28;20530;-73
2022/02/06 08:24:49;;;;;;;0.70;0.50;;;8.90;99.90;;;;;;5013763;28;20462;-73
2022/02/06 08:27:16;;;;;;;0.70;0.50;;;9.00;99.90;;;;;;4996592;28;20431;-74
2022/02/06 08:29:45;;;;;;;0.70;0.50;;;9.00;99.90;;;;;;5013844;28;20477;-73
2022/02/06 08:32:10;;;;;;;0.70;0.50;;;9.00;99.90;;;;;;5011050;28;20486;-74
2022/02/06 08:34:36;;;;;;;0.70;0.50;;;9.00;99.90;;;;;;5013740;28;20462;-73
2022/02/06 08:37:03;;;;;;;0.70;0.50;;;9.00;99.90;;;;;;5014078;28;20432;-73
2022/02/06 08:39:33;;;;;;;0.70;0.50;;;9.00;99.90;;;;;;5014774;28;20653;-75
2022/02/06 08:42:00;;;;;;;0.70;0.50;;;9.00;99.90;;;;;;5014126;28;20503;-74
2022/02/06 08:44:26;;;;;;;0.70;0.50;;;9.00;99.90;;;;;;5014702;28;20401;-73
2022/02/06 08:46:51;;;;;;;0.70;0.50;;;9.10;99.90;;;;;;5014629;28;20494;-73
2022/02/06 08:49:17;;;;;;;0.70;0.50;;;9.00;99.90;;;;;;5014805;28;20514;-73
2022/02/06 08:51:46;;;;;;;0.70;0.50;;;9.00;99.90;;;;;;5011706;28;20172;-74
2022/02/06 08:54:11;;;;;;;0.70;0.50;;;9.00;99.90;;;;;;4997033;28;20168;-74
2022/02/06 08:56:39;;;;;;;0.70;0.50;;;9.00;99.90;;;;;;5014503;28;20391;-74
2022/02/06 08:59:09;;;;;;;0.70;0.50;;;9.00;99.90;;;;;;5014827;28;20198;-74
2022/02/06 09:01:35;;;;;;;0.70;0.50;;;9.10;99.90;;;;;;5010840;28;20554;-75
2022/02/06 09:04:01;;;;;;;0.70;0.40;;;9.10;99.90;;;;;;5009122;28;20477;-75
2022/02/06 09:06:27;;;;;;;0.70;0.50;;;9.00;99.90;;;;;;5014137;28;20489;-75
2022/02/06 09:08:56;;;;;;;0.70;0.50;;;9.00;99.90;;;;;;5013089;28;20196;-75
2022/02/06 09:11:28;;;;;;;0.70;0.50;;;9.00;99.90;;;;;;5012764;28;20943;-75
2022/02/06 09:13:53;;;;;;;0.70;0.50;;;9.00;99.90;;;;;;5013814;28;20935;-75
2022/02/06 09:16:19;;;;;;;0.70;0.50;;;9.00;99.90;;;;;;5013946;28;20430;-75
2022/02/06 09:18:45;;;;;;;0.70;0.50;;;9.00;99.90;;;;;;5014108;28;20188;-75
2022/02/06 09:21:10;;;;;;;0.70;0.50;;;9.00;99.90;;;;;;5013242;28;21114;-75
2022/02/06 09:23:36;;;;;;;0.70;0.50;;;9.00;99.90;;;;;;5013288;28;20666;-75
2022/02/06 09:26:02;;;;;;;0.70;0.50;;;8.90;99.90;;;;;;4995868;28;20179;-75
2022/02/06 09:28:28;;;;;;;0.70;0.50;;;9.00;99.90;;;;;;5013215;28;20630;-75
2022/02/06 09:30:53;;;;;;;0.70;0.50;;;9.00;99.90;;;;;;5012560;28;20435;-77
2022/02/06 09:35:44;;;;;;;0.70;0.60;;;9.00;99.90;;;;;;5012849;28;20183;-75
2022/02/06 09:38:10;;;;;;;0.70;0.50;;;9.00;99.90;;;;;;5013019;28;20180;-75
2022/02/06 09:40:43;;;;;;;0.70;0.50;;;9.00;99.90;;;;;;4994865;28;20188;-75
2022/02/06 09:43:10;;;;;;;0.70;0.50;;;9.00;99.90;;;;;;5011728;28;20187;-74
2022/02/06 09:45:40;;;;;;;0.70;0.50;;;9.00;99.90;;;;;;5012393;28;20454;-73
2022/02/06 09:48:09;;;;;;;0.70;0.50;;;9.00;99.90;;;;;;5012845;28;20442;-75
2022/02/06 09:50:35;;;;;;;0.70;0.50;;;8.90;99.90;;;;;;5012610;28;20423;-74
2022/02/06 09:53:00;;;;;;;0.70;0.50;;;9.00;99.90;;;;;;5007804;28;20980;-74
2022/02/06 09:55:26;;;;;;;0.70;0.50;;;9.00;99.90;;;;;;5011911;28;20457;-74
2022/02/06 10:00:19;;;;;;;0.70;0.50;;;9.00;99.90;;;;;;5012470;28;20195;-75
2022/02/06 10:02:47;;;;;;;0.70;0.40;;;9.00;99.90;;;;;;5011285;28;20176;-74
2022/02/06 10:05:15;;;;;;;0.70;0.50;;;9.00;99.90;;;;;;5012067;28;20418;-74
2022/02/06 10:07:45;;;;;;;0.70;0.50;;;9.00;99.90;;;;;;5012490;28;20777;-73
2022/02/06 10:10:12;;;;;;;0.70;0.50;;;9.00;99.90;;;;;;5011886;28;20875;-74
2022/02/06 10:12:40;;;;;;;0.70;0.60;;;9.00;99.90;;;;;;5012759;28;20459;-74
2022/02/06 10:15:10;;;;;;;0.70;0.50;;;9.00;99.90;;;;;;5013013;28;20399;-74
2022/02/06 10:17:36;;;;;;;0.70;0.50;;;9.00;99.90;;;;;;5012672;28;20493;-74
2022/02/06 10:20:10;;;;;;;0.70;0.50;;;9.00;99.90;;;;;;4993999;28;20538;-74
2022/02/06 10:22:40;;;;;;;0.70;0.47;;;8.90;99.90;;;;;;5018359;28;20442;-74
2022/02/06 10:25:09;;;;;;;0.70;0.50;;;8.90;99.90;;;;;;5031496;28;20902;-74
2022/02/06 10:27:58;;;;;;;1.00;0.90;;;8.90;99.90;;;;;;5009878;28;20518;-74
2022/02/06 10:30:39;;;;;;;0.70;0.43;;;8.80;99.90;;;;;;5012142;28;20792;-74
2022/02/06 10:33:05;;;;;;;0.70;0.40;;;8.80;99.90;;;;;;5012401;28;20446;-73
2022/02/06 10:35:35;;;;;;;0.70;0.50;;;8.80;99.90;;;;;;4994683;28;20510;-74
2022/02/06 10:38:26;;;;;;;0.70;0.50;;;8.80;99.90;;;;;;5012072;28;20422;-74
2022/02/06 10:41:11;;;;;;;0.70;0.50;;;8.80;99.90;;;;;;4994740;28;20404;-74
2022/02/06 10:43:39;;;;;;;0.70;0.50;;;8.80;99.90;;;;;;5012312;28;20938;-74
2022/02/06 10:46:10;;;;;;;0.70;0.50;;;8.70;99.90;;;;;;5019232;28;20438;-74
2022/02/06 10:48:48;;;;;;;0.70;0.50;;;8.70;99.90;;;;;;5011915;28;20500;-74
2022/02/06 10:51:51;;;;;;;0.70;0.50;;;8.70;99.90;;;;;;5011587;28;20506;-74
2022/02/06 10:54:29;;;;;;;0.70;0.50;;;8.80;99.90;;;;;;5010410;28;20785;-74
2022/02/06 10:57:14;;;;;;;0.70;0.50;;;8.80;99.90;;;;;;5012082;28;20398;-74
2022/02/06 10:59:42;;;;;;;0.70;0.50;;;8.80;99.90;;;;;;5010257;28;20446;-74
2022/02/06 11:02:21;;;;;;;0.70;0.50;;;8.80;99.90;;;;;;5009000;28;20411;-74
2022/02/06 11:05:07;;;;;;;0.70;0.50;;;8.80;99.90;;;;;;4994600;28;20530;-73
2022/02/06 11:07:33;;;;;;;0.70;0.50;;;8.70;99.90;;;;;;5022484;28;20434;-74
2022/02/06 11:10:09;;;;;;;0.70;0.50;;;8.70;99.90;;;;;;5023946;28;20521;-74
2022/02/06 11:12:35;;;;;;;0.70;0.47;;;8.70;99.90;;;;;;4993593;28;20538;-74
2022/02/06 11:15:03;;;;;;;0.70;0.50;;;8.70;99.90;;;;;;5010380;28;20940;-75
2022/02/06 11:17:32;;;;;;;0.70;0.50;;;8.70;99.90;;;;;;5022279;28;20231;-74
2022/02/06 11:20:00;;;;;;;0.70;0.50;;;8.70;99.90;;;;;;5031411;28;20414;-74
2022/02/06 11:22:26;;;;;;;0.70;0.50;;;8.60;99.90;;;;;;5013846;28;20419;-74
2022/02/06 11:24:52;;;;;;;0.70;0.50;;;8.60;99.90;;;;;;5011534;28;20403;-74
2022/02/06 11:27:19;;;;;;;1.73;0.97;;;8.60;99.90;;;;;;5011730;28;20403;-74
2022/02/06 11:29:46;;;;;;;0.70;0.50;;;8.50;99.90;;;;;;5011638;28;20195;-74
2022/02/06 11:32:13;;;;;;;0.70;0.50;;;8.50;99.90;;;;;;5011334;28;20531;-74
2022/02/06 11:34:42;;;;;;;0.70;0.50;;;8.50;99.90;;;;;;5005619;28;20458;-74
2022/02/06 11:45:57;;;;;;;0.70;0.50;;;8.30;99.90;;;;;;5014523;28;20410;-74
2022/02/06 11:48:28;;;;;;;0.70;0.50;;;8.30;99.90;;;;;;4997220;28;20501;-74
2022/02/06 11:50:54;;;;;;;0.70;0.50;;;8.30;99.90;;;;;;5014312;28;20960;-74
2022/02/06 11:53:39;;;;;;;0.70;0.50;;;8.30;99.90;;;;;;5014806;28;20461;-74
2022/02/06 11:56:20;;;;;;;0.70;0.50;;;8.30;99.90;;;;;;4997042;28;20411;-74
2022/02/06 11:58:47;;;;;;;0.70;0.50;;;8.30;99.90;;;;;;4997393;28;20936;-74
2022/02/06 12:01:13;;;;;;;0.70;0.50;;;8.30;99.90;;;;;;4996929;28;20506;-74
2022/02/06 12:04:02;;;;;;;0.70;0.47;;;8.30;99.90;;;;;;5034110;28;20877;-73
2022/02/06 12:06:39;;;;;;;0.70;0.50;;;8.30;99.90;;;;;;5020048;28;20707;-73
2022/02/06 12:09:04;;;;;;;0.70;0.47;;;8.30;99.90;;;;;;5014147;28;20423;-74
2022/02/06 12:11:31;;;;;;;0.70;0.50;;;8.30;99.90;;;;;;5013036;28;20786;-74
2022/02/06 12:14:23;;;;;;;0.70;0.50;;;8.30;99.90;;;;;;4996477;28;20254;-73
2022/02/06 12:17:15;;;;;;;0.70;0.50;;;8.30;99.90;;;;;;5014171;28;20417;-73
2022/02/06 12:19:41;;;;;;;0.70;0.40;;;8.30;99.90;;;;;;5014294;28;20419;-73
2022/02/06 12:22:25;;;;;;;0.70;0.50;;;8.30;99.90;;;;;;5029671;28;20565;-74
2022/02/06 12:24:51;;;;;;;0.70;0.50;;;8.30;99.90;;;;;;4997810;28;20180;-73
2022/02/06 12:27:25;;;;;;;0.70;0.50;;;8.30;99.90;;;;;;5012416;28;20781;-73
2022/02/06 12:30:06;;;;;;;0.73;0.53;;;8.30;99.90;;;;;;5014052;28;20920;-73
2022/02/06 12:32:39;;;;;;;0.70;0.50;;;8.40;99.90;;;;;;5014275;28;20446;-72
2022/02/06 12:38:08;;;;;;;0.70;0.50;;;8.50;99.90;;;;;;4953663;29;20416;-73
2022/02/06 12:40:34;;;;;;;0.70;0.50;;;8.60;99.90;;;;;;4984634;28;20506;-72
2022/02/06 12:43:02;;;;;;;0.70;0.47;;;8.60;99.90;;;;;;5001966;28;20925;-73
2022/02/06 12:45:30;;;;;;;0.70;0.50;;;8.70;99.90;;;;;;5000492;28;20190;-73
2022/02/06 12:48:02;;;;;;;0.70;0.50;;;8.70;99.90;;;;;;5009289;28;20449;-73
2022/02/06 12:50:32;;;;;;;0.70;0.50;;;8.80;99.90;;;;;;5012829;28;20450;-72
2022/02/06 12:52:59;;;;;;;0.70;0.50;;;8.90;99.90;;;;;;5014970;28;20462;-72
2022/02/06 12:55:29;;;;;;;0.70;0.50;;;9.00;99.90;;;;;;5021503;28;20438;-73
2022/02/06 12:57:55;;;;;;;0.70;0.50;;;9.00;99.90;;;;;;5018689;28;20429;-73
2022/02/06 13:00:43;;;;;;;0.70;0.50;;;9.10;99.90;;;;;;5005018;28;20808;-73
2022/02/06 13:03:40;;;;;;;0.70;0.50;;;9.20;99.90;;;;;;4993356;28;20570;-72
2022/02/06 13:06:12;;;;;;;0.70;0.50;;;9.30;99.90;;;;;;5010809;28;20428;-73
2022/02/06 13:08:40;;;;;;;0.70;0.60;;;9.40;99.90;;;;;;4996060;28;20450;-72
2022/02/06 13:11:11;;;;;;;0.70;0.50;;;9.40;99.90;;;;;;5013001;28;20427;-72
2022/02/06 13:13:52;;;;;;;0.70;0.40;;;9.50;99.90;;;;;;5013288;28;20466;-72
2022/02/06 13:16:43;;;;;;;0.70;0.50;;;9.50;99.90;;;;;;5013139;28;20903;-72
2022/02/06 13:30:31;;;;;;;0.70;0.50;;;9.60;99.90;;;;;;5012913;28;20501;-71
2022/02/06 13:33:07;;;;;;;0.70;0.50;;;9.60;99.90;;;;;;4992475;28;20470;-71
2022/02/06 13:35:53;;;;;;;0.70;0.50;;;9.60;99.90;;;;;;5001180;28;20426;-71
2022/02/06 13:38:18;;;;;;;0.70;0.50;;;9.60;99.90;;;;;;5012732;28;20430;-71
2022/02/06 13:40:49;;;;;;;0.70;0.50;;;9.50;99.90;;;;;;4993829;28;20428;-71
2022/02/06 13:43:22;;;;;;;0.70;0.50;;;9.40;99.90;;;;;;4995919;28;20459;-71
2022/02/06 13:45:50;;;;;;;0.70;0.50;;;9.30;99.90;;;;;;5013209;28;20430;-72
2022/02/06 13:48:19;;;;;;;0.70;0.50;;;9.20;99.90;;;;;;5011798;28;20488;-71
2022/02/06 13:50:50;;;;;;;0.70;0.50;;;9.10;99.90;;;;;;5011765;28;20443;-71
2022/02/06 13:53:22;;;;;;;0.70;0.50;;;9.10;99.90;;;;;;5012630;28;20863;-71
2022/02/06 13:55:50;;;;;;;0.70;0.50;;;9.00;99.90;;;;;;5010670;28;20433;-71
2022/02/06 13:58:26;;;;;;;0.70;0.50;;;8.90;99.90;;;;;;5012453;28;20821;-71
2022/02/06 14:01:08;;;;;;;0.70;0.47;;;8.80;99.90;;;;;;5012692;28;20446;-71
2022/02/06 14:03:43;;;;;;;0.87;0.87;;;8.70;99.90;;;;;;5012679;28;20514;-71
2022/02/06 14:06:09;;;;;;;0.70;0.40;;;8.60;99.90;;;;;;5011776;28;20513;-71
2022/02/06 14:08:37;;;;;;;0.70;0.47;;;8.40;99.90;;;;;;5013085;28;20835;-71
2022/02/06 14:11:15;;;;;;;0.70;0.50;;;8.30;99.90;;;;;;5013228;28;20411;-71
2022/02/06 14:13:41;;;;;;;0.87;0.73;;;8.30;99.90;;;;;;5012902;28;20473;-71
2022/02/06 14:16:12;;;;;;;0.70;0.50;;;8.20;99.90;;;;;;5011014;28;20530;-71
2022/02/06 14:18:54;;;;;;;0.70;0.50;;;8.10;99.90;;;;;;5012317;28;20202;-71
2022/02/06 14:21:20;;;;;;;0.70;0.40;;;8.00;99.90;;;;;;5013669;28;20470;-71
2022/02/06 14:24:11;;;;;;;0.70;0.50;;;8.00;99.90;;;;;;5013924;28;20446;-72
2022/02/06 14:26:38;;;;;;;0.70;0.50;;;8.00;99.90;;;;;;5007217;28;20451;-72
2022/02/06 14:29:15;;;;;;;1.07;0.93;;;7.90;99.90;;;;;;5012421;28;20443;-72
2022/02/06 14:31:41;;;;;;;0.70;0.50;;;7.90;99.90;;;;;;5010881;28;20474;-71
2022/02/06 14:34:14;;;;;;;0.70;0.50;;;7.90;99.90;;;;;;4996997;28;20454;-72
2022/02/06 14:36:40;;;;;;;0.70;0.50;;;7.80;99.90;;;;;;5011943;28;20174;-71
2022/02/06 14:39:06;;;;;;;0.70;0.40;;;7.80;99.90;;;;;;5012020;28;20526;-72
2022/02/06 14:41:48;;;;;;;0.70;0.50;;;7.80;99.90;;;;;;5011747;28;20466;-72
2022/02/06 14:44:23;;;;;;;0.70;0.47;;;7.80;99.90;;;;;;5011623;28;20218;-74
2022/02/06 14:46:49;;;;;;;0.70;0.40;;;7.80;99.90;;;;;;5011820;28;20438;-72
2022/02/06 14:49:17;;;;;;;0.70;0.50;;;7.70;99.90;;;;;;5011901;28;20752;-72
2022/02/06 14:51:43;;;;;;;0.80;0.50;;;7.70;99.90;;;;;;5011726;28;20184;-72
2022/02/06 14:54:10;;;;;;;0.70;0.50;;;7.70;99.90;;;;;;5011385;28;20916;-72
2022/02/06 14:56:39;;;;;;;0.70;0.40;;;7.70;99.90;;;;;;5011259;28;20173;-72
2022/02/06 14:59:07;;;;;;;1.57;0.77;;;7.70;99.90;;;;;;5011067;28;20809;-72
2022/02/06 15:01:33;;;;;;;0.80;0.70;;;7.70;99.90;;;;;;5010446;28;20427;-72
2022/02/06 15:03:59;;;;;;;0.70;0.47;;;7.70;99.90;;;;;;5011286;28;20795;-73
2022/02/06 15:06:24;;;;;;;0.70;0.40;;;7.70;99.90;;;;;;5011041;28;20423;-72
2022/02/06 15:08:52;;;;;;;0.70;0.50;;;7.70;99.90;;;;;;4996754;28;20196;-72
2022/02/06 15:11:18;;;;;;;0.70;0.50;;;7.70;99.90;;;;;;5015699;28;20176;-73
2022/02/06 15:13:44;;;;;;;0.70;0.50;;;7.60;99.90;;;;;;5015088;28;20453;-73
2022/02/06 15:16:15;;;;;;;0.70;0.50;;;7.60;99.90;;;;;;5015122;28;20474;-74
2022/02/06 15:18:46;;;;;;;0.70;0.40;;;7.60;99.90;;;;;;5014971;28;20688;-73
2022/02/06 15:21:12;;;;;;;0.70;0.50;;;7.60;99.90;;;;;;4997447;28;20477;-73
2022/02/06 15:23:40;;;;;;;1.07;0.90;;;7.60;99.90;;;;;;5014083;28;20426;-73
2022/02/06 15:26:06;;;;;;;0.70;0.50;;;7.60;99.90;;;;;;5014832;28;20255;-73
2022/02/06 15:28:31;;;;;;;0.80;0.80;;;7.50;99.90;;;;;;4997211;28;20998;-72
2022/02/06 15:30:57;;;;;;;0.70;0.50;;;7.50;99.90;;;;;;5015018;28;20489;-72
2022/02/06 15:33:24;;;;;;;0.70;0.50;;;7.50;99.90;;;;;;5013819;28;20669;-72
2022/02/06 15:35:50;;;;;;;0.70;0.50;;;7.50;99.90;;;;;;4996645;28;20168;-72
2022/02/06 15:38:18;;;;;;;0.70;0.50;;;7.50;99.90;;;;;;5015018;28;20414;-73
2022/02/06 15:40:44;;;;;;;0.70;0.40;;;7.50;99.90;;;;;;4997267;28;20423;-73